createdAt,value
2018-09-24T00:01:06.271Z,99920.16
2018-09-24T00:03:35.807Z,99922.91
2018-09-24T00:06:05.434Z,99919.92
2018-09-24T00:08:34.935Z,99919.95
2018-09-24T00:11:04.511Z,99909.53
2018-09-24T00:13:34.008Z,99904.39
2018-09-24T00:16:03.579Z,99907.19
2018-09-24T00:18:33.151Z,99905.56
2018-09-24T00:21:02.751Z,99906.42
2018-09-24T00:23:32.286Z,99911.92
2018-09-24T00:26:01.788Z,99905.37
2018-09-24T00:28:31.320Z,99903.99
2018-09-24T00:31:00.815Z,99898.53
2018-09-24T00:33:30.347Z,99898.84
2018-09-24T00:35:59.990Z,99901.07
2018-09-24T00:38:29.564Z,99892.30
2018-09-24T00:40:59.128Z,99886.27
2018-09-24T00:43:28.682Z,99884.05
2018-09-24T00:45:58.170Z,99879.92
2018-09-24T00:48:27.717Z,99881.90
2018-09-24T00:50:57.251Z,99873.16
2018-09-24T00:53:26.782Z,99871.52
2018-09-24T00:55:56.335Z,99873.73
2018-09-24T00:58:25.851Z,99870.17
2018-09-24T01:00:55.463Z,99870.45
2018-09-24T01:03:24.955Z,99869.64
2018-09-24T01:05:54.511Z,99874.33
2018-09-24T01:08:24.007Z,99869.16
2018-09-24T01:10:53.582Z,99870.81
2018-09-24T01:13:23.151Z,99874.97
2018-09-24T01:15:52.766Z,99870.04
2018-09-24T01:18:22.239Z,99866.23
2018-09-24T01:20:51.770Z,99871.48
2018-09-24T01:23:21.279Z,99864.09
2018-09-24T01:25:50.768Z,99853.97
2018-09-24T01:28:20.295Z,99859.50
2018-09-24T01:30:49.879Z,99853.16
2018-09-24T01:33:19.374Z,99848.23
2018-09-24T01:35:48.922Z,99845.87
2018-09-24T01:38:18.463Z,99839.25
2018-09-24T01:40:47.961Z,99839.00
2018-09-24T01:43:17.572Z,99837.62
2018-09-24T01:45:47.062Z,99833.55
2018-09-24T01:48:16.625Z,99836.04
2018-09-24T01:50:46.181Z,99844.81
2018-09-24T01:53:15.740Z,99833.86
2018-09-24T01:55:49.799Z,99836.08
2018-09-24T01:58:19.306Z,99832.23
2018-09-24T02:00:48.878Z,99824.31
2018-09-24T02:03:18.558Z,99822.41
2018-09-24T02:05:48.107Z,99821.62
2018-09-24T02:08:17.624Z,99817.57
2018-09-24T02:10:47.300Z,99822.50
2018-09-24T02:13:16.852Z,99823.31
2018-09-24T02:15:46.379Z,99824.44
2018-09-24T02:18:15.906Z,99825.06
2018-09-24T02:20:46.315Z,99820.91
2018-09-24T02:23:16.301Z,99817.63
2018-09-24T02:25:45.951Z,99816.82
2018-09-24T02:28:15.591Z,99813.48
2018-09-24T02:30:45.098Z,99814.86
2018-09-24T02:33:14.612Z,99815.14
2018-09-24T02:35:49.329Z,99807.15
2018-09-24T02:38:19.702Z,99801.41
2018-09-24T02:40:49.283Z,99795.14
2018-09-24T02:43:24.627Z,99794.86
2018-09-24T02:45:55.516Z,99799.81
2018-09-24T02:48:25.009Z,99795.70
2018-09-24T02:50:54.619Z,99800.09
2018-09-24T02:53:24.139Z,99795.70
2018-09-24T02:55:53.700Z,99790.23
2018-09-24T02:58:23.229Z,99790.23
2018-09-24T03:00:52.833Z,99786.13
2018-09-24T03:03:22.330Z,99789.42
2018-09-24T03:05:51.869Z,99792.45
2018-09-24T03:08:21.436Z,99780.66
2018-09-24T03:10:50.993Z,99780.37
2018-09-24T03:13:20.509Z,99780.69
2018-09-24T03:15:50.077Z,99780.41
2018-09-24T03:18:19.684Z,99781.78
2018-09-24T03:20:49.215Z,99783.47
2018-09-24T03:23:18.718Z,99782.94
2018-09-24T03:25:48.262Z,99784.30
2018-09-24T03:28:17.764Z,99783.78
2018-09-24T03:30:47.346Z,99781.06
2018-09-24T03:33:16.847Z,99779.13
2018-09-24T03:35:46.372Z,99786.83
2018-09-24T03:38:15.854Z,99780.27
2018-09-24T03:40:45.378Z,99780.30
2018-09-24T03:43:14.859Z,99782.80
2018-09-24T03:45:44.383Z,99779.55
2018-09-24T03:48:13.919Z,99781.23
2018-09-24T03:50:43.448Z,99789.18
2018-09-24T03:53:12.964Z,99780.44
2018-09-24T03:55:42.483Z,99774.14
2018-09-24T03:58:11.978Z,99773.07
2018-09-24T04:00:41.511Z,99775.84
2018-09-24T04:03:11.018Z,99768.44
2018-09-24T04:05:45.660Z,99760.27
2018-09-24T04:08:20.313Z,99761.38
2018-09-24T04:10:54.868Z,99759.48
2018-09-24T04:13:29.357Z,99748.76
2018-09-24T04:16:04.139Z,99751.50
2018-09-24T04:18:38.651Z,99748.22
2018-09-24T04:21:13.283Z,99743.86
2018-09-24T04:23:47.900Z,99746.85
2018-09-24T04:26:22.615Z,99747.69
2018-09-24T04:28:57.154Z,99745.23
2018-09-24T04:31:31.784Z,99755.36
2018-09-24T04:34:06.387Z,99751.55
2018-09-24T04:36:41.024Z,99748.81
2018-09-24T04:39:15.583Z,99754.78
2018-09-24T04:41:50.185Z,99750.71
2018-09-24T04:44:24.722Z,99746.30
2018-09-24T04:46:59.335Z,99750.95
2018-09-24T04:49:33.854Z,99743.50
2018-09-24T04:52:08.339Z,99745.94
2018-09-24T04:54:42.815Z,99737.41
2018-09-24T04:57:17.414Z,99737.08
2018-09-24T04:59:52.143Z,99735.11
2018-09-24T05:02:26.708Z,99736.14
2018-09-24T05:05:01.336Z,99740.45
2018-09-24T05:07:35.811Z,99738.98
2018-09-24T05:10:10.373Z,99745.12
2018-09-24T05:12:44.898Z,99742.05
2018-09-24T05:15:19.544Z,99743.04
2018-09-24T05:17:54.022Z,99746.45
2018-09-24T05:20:28.645Z,99746.31
2018-09-24T05:23:03.154Z,99641.78
2018-09-24T05:25:37.677Z,99746.67
2018-09-24T05:28:12.196Z,99739.63
2018-09-24T05:30:47.024Z,99730.74
2018-09-24T05:33:21.623Z,99722.52
2018-09-24T05:35:56.140Z,99718.58
2018-09-24T05:38:30.881Z,99722.87
2018-09-24T05:41:05.482Z,99721.03
2018-09-24T05:43:40.124Z,99719.56
2018-09-24T05:46:14.862Z,99719.78
2018-09-24T05:48:49.523Z,99714.31
2018-09-24T05:51:24.115Z,99718.09
2018-09-24T05:53:58.786Z,99709.53
2018-09-24T05:56:33.285Z,99711.94
2018-09-24T05:59:07.806Z,99708.45
2018-09-24T06:01:42.380Z,99707.95
2018-09-24T06:04:16.895Z,99705.88
2018-09-24T06:06:51.388Z,99707.05
2018-09-24T06:09:25.970Z,99710.55
2018-09-24T06:12:00.490Z,99708.72
2018-09-24T06:14:35.087Z,99708.30
2018-09-24T06:17:09.645Z,99699.18
2018-09-24T06:19:44.086Z,99696.99
2018-09-24T06:22:18.758Z,99698.56
2018-09-24T06:24:53.225Z,99699.62
2018-09-24T06:27:27.854Z,99695.18
2018-09-24T06:30:02.554Z,99693.92
2018-09-24T06:32:37.172Z,99681.80
2018-09-24T06:35:11.885Z,99680.35
2018-09-24T06:37:46.586Z,99678.76
2018-09-24T06:40:21.242Z,99676.85
2018-09-24T06:42:55.823Z,99680.50
2018-09-24T06:45:30.346Z,99683.34
2018-09-24T06:48:05.012Z,99683.92
2018-09-24T06:50:39.515Z,99683.59
2018-09-24T06:53:14.192Z,99669.12
2018-09-24T06:55:48.704Z,99660.20
2018-09-24T06:58:23.186Z,99660.52
2018-09-24T07:00:57.668Z,99655.16
2018-09-24T07:03:32.182Z,99658.01
2018-09-24T07:06:06.855Z,99657.11
2018-09-24T07:08:41.396Z,99654.83
2018-09-24T07:11:15.916Z,99655.56
2018-09-24T07:13:50.543Z,99659.36
2018-09-24T07:16:25.026Z,99649.78
2018-09-24T07:19:00.196Z,99654.01
2018-09-24T07:21:34.803Z,99653.83
2018-09-24T07:24:09.426Z,99644.34
2018-09-24T07:26:43.979Z,99646.05
2018-09-24T07:29:18.662Z,99644.46
2018-09-24T07:31:53.399Z,99642.47
2018-09-24T07:34:28.052Z,99642.31
2018-09-24T07:37:02.550Z,99644.47
2018-09-24T07:39:37.051Z,99645.24
2018-09-24T07:42:11.531Z,99643.83
2018-09-24T07:44:46.307Z,99646.20
2018-09-24T07:47:20.990Z,99644.23
2018-09-24T07:49:55.503Z,99642.36
2018-09-24T07:52:29.984Z,99642.16
2018-09-24T07:55:04.503Z,99644.95
2018-09-24T07:57:39.161Z,99642.77
2018-09-24T08:00:13.646Z,99639.05
2018-09-24T08:02:48.264Z,99633.64
2018-09-24T08:05:22.762Z,99631.57
2018-09-24T08:07:57.347Z,99628.75
2018-09-24T08:10:31.890Z,99635.79
2018-09-24T08:13:06.424Z,99631.38
2018-09-24T08:15:40.940Z,99621.00
2018-09-24T08:18:15.574Z,99617.73
2018-09-24T08:20:50.280Z,99609.52
2018-09-24T08:23:24.966Z,99613.31
2018-09-24T08:25:59.490Z,99610.21
2018-09-24T08:28:33.964Z,99615.53
2018-09-24T08:31:08.478Z,99608.05
2018-09-24T08:33:43.025Z,99605.13
2018-09-24T08:36:17.766Z,99601.55
2018-09-24T08:38:52.408Z,99600.30
2018-09-24T08:41:27.013Z,99600.06
2018-09-24T08:44:01.567Z,99598.09
2018-09-24T08:46:36.216Z,99599.12
2018-09-24T08:49:10.850Z,99592.77
2018-09-24T08:51:45.515Z,99584.21
2018-09-24T08:54:20.104Z,99589.94
2018-09-24T08:56:54.741Z,99582.28
2018-09-24T08:59:29.317Z,99576.19
2018-09-24T09:02:03.854Z,99575.93
2018-09-24T09:04:38.459Z,99574.34
2018-09-24T09:07:12.894Z,99573.39
2018-09-24T09:09:47.500Z,99571.05
2018-09-24T09:12:22.100Z,99565.38
2018-09-24T09:14:56.679Z,99563.80
2018-09-24T09:17:31.190Z,99566.77
2018-09-24T09:20:05.781Z,99566.98
2018-09-24T09:22:40.393Z,99558.20
2018-09-24T09:25:14.896Z,99553.82
2018-09-24T09:27:49.454Z,99548.83
2018-09-24T09:30:23.998Z,99544.33
2018-09-24T09:32:58.476Z,99550.13
2018-09-24T09:35:32.987Z,99541.34
2018-09-24T09:38:07.469Z,99536.34
2018-09-24T09:40:41.999Z,99537.52
2018-09-24T09:43:16.639Z,99531.84
2018-09-24T09:45:51.248Z,99529.06
2018-09-24T09:48:25.771Z,99524.98
2018-09-24T09:51:00.383Z,99527.91
2018-09-24T09:53:35.092Z,99524.19
2018-09-24T09:56:09.588Z,99464.95
2018-09-24T09:58:44.218Z,99519.67
2018-09-24T10:01:18.874Z,99512.60
2018-09-24T10:03:53.482Z,99514.78
2018-09-24T10:06:28.095Z,99500.70
2018-09-24T10:09:02.713Z,99499.38
2018-09-24T10:11:37.357Z,99496.70
2018-09-24T10:14:11.985Z,99493.27
2018-09-24T10:16:46.554Z,99487.94
2018-09-24T10:19:21.026Z,99489.01
2018-09-24T10:21:55.586Z,99490.93
2018-09-24T10:24:30.136Z,99482.28
2018-09-24T10:27:04.815Z,99484.91
2018-09-24T10:29:39.344Z,99467.15
2018-09-24T10:32:13.882Z,99464.95
2018-09-24T10:34:48.350Z,99463.91
2018-09-24T10:37:22.872Z,99455.33
2018-09-24T10:39:57.554Z,99451.02
2018-09-24T10:42:32.086Z,99449.33
2018-09-24T10:45:06.602Z,99440.24
2018-09-24T10:47:41.116Z,99432.34
2018-09-24T10:50:15.662Z,99428.30
2018-09-24T10:52:50.235Z,99421.48
2018-09-24T10:55:24.695Z,99418.53
2018-09-24T10:57:59.183Z,99424.73
2018-09-24T11:00:33.735Z,99422.81
2018-09-24T11:03:08.258Z,99420.65
2018-09-24T11:05:42.766Z,99414.09
2018-09-24T11:08:17.395Z,99405.05
2018-09-24T11:10:51.923Z,99410.12
2018-09-24T11:13:26.408Z,99405.09
2018-09-24T11:16:00.980Z,99399.42
2018-09-24T11:18:35.436Z,99391.97
2018-09-24T11:21:09.968Z,99385.79
2018-09-24T11:23:44.477Z,99381.91
2018-09-24T11:28:53.616Z,99370.51
2018-09-24T11:31:28.203Z,99376.37
2018-09-24T11:34:02.691Z,99367.31
2018-09-24T11:36:37.238Z,99365.03
2018-09-24T11:39:14.146Z,99361.73
2018-09-24T11:41:48.829Z,99360.55
2018-09-24T11:44:23.402Z,99353.52
2018-09-24T11:46:57.939Z,99346.58
2018-09-24T11:49:32.381Z,99344.45
2018-09-24T11:52:06.931Z,99343.97
2018-09-24T11:54:41.475Z,99338.09
2018-09-24T11:57:15.962Z,99333.31
2018-09-24T11:59:50.478Z,99331.56
2018-09-24T12:02:24.969Z,99323.11
2018-09-24T12:04:59.510Z,99325.95
2018-09-24T12:07:33.990Z,99328.58
2018-09-24T12:10:08.545Z,99325.86
2018-09-24T12:12:43.087Z,99321.23
2018-09-24T12:15:17.602Z,99321.02
2018-09-24T12:17:52.184Z,99318.30
2018-09-24T12:20:26.715Z,99316.52
2018-09-24T12:23:01.239Z,99316.92
2018-09-24T12:25:35.695Z,99311.44
2018-09-24T12:28:10.240Z,99304.50
2018-09-24T12:30:44.700Z,99307.86
2018-09-24T12:33:19.270Z,99299.66
2018-09-24T12:35:53.704Z,99298.83
2018-09-24T12:38:28.250Z,99296.23
2018-09-24T12:41:02.789Z,99282.94
2018-09-24T12:43:37.319Z,99277.13
2018-09-24T12:46:11.850Z,99269.43
2018-09-24T12:48:46.274Z,99266.86
2018-09-24T12:51:20.758Z,99260.13
2018-09-24T12:53:55.228Z,99262.41
2018-09-24T12:56:29.780Z,99261.55
2018-09-24T12:59:04.344Z,99254.87
2018-09-24T13:01:38.910Z,99245.77
2018-09-24T13:04:13.406Z,99246.45
2018-09-24T13:06:48.030Z,99244.45
2018-09-24T13:09:22.468Z,99232.95
2018-09-24T13:11:57.149Z,99231.66
2018-09-24T13:14:31.812Z,99226.44
2018-09-24T13:17:06.366Z,99224.11
2018-09-24T13:19:40.930Z,99218.33
2018-09-24T13:22:15.448Z,99212.89
2018-09-24T13:24:50.061Z,99210.41
2018-09-24T13:27:24.556Z,99205.38
2018-09-24T13:29:59.108Z,99205.73
2018-09-24T13:32:33.675Z,99206.48
2018-09-24T13:35:08.161Z,99196.92
2018-09-24T13:37:42.599Z,99195.67
2018-09-24T13:40:17.278Z,99195.25
2018-09-24T13:42:51.910Z,99193.70
2018-09-24T13:45:26.441Z,99191.53
2018-09-24T13:48:00.910Z,99192.25
2018-09-24T13:50:35.422Z,99196.76
2018-09-24T13:53:09.962Z,99191.50
2018-09-24T13:55:44.465Z,99194.41
2018-09-24T13:58:18.964Z,99190.91
2018-09-24T14:00:53.445Z,99181.91
2018-09-24T14:03:28.334Z,99186.13
2018-09-24T14:06:02.794Z,99183.51
2018-09-24T14:08:38.173Z,99188.68
2018-09-24T14:11:12.683Z,99187.65
2018-09-24T14:13:47.299Z,99187.05
2018-09-24T14:16:21.984Z,99176.46
2018-09-24T14:18:56.519Z,99175.25
2018-09-24T14:21:31.030Z,99177.82
2018-09-24T14:24:05.550Z,99181.17
2018-09-24T14:26:39.993Z,99173.15
2018-09-24T14:29:14.600Z,99176.83
2018-09-24T14:31:49.217Z,99178.17
2018-09-24T14:34:23.795Z,99186.43
2018-09-24T14:36:58.357Z,99185.39
2018-09-24T14:39:32.974Z,99192.75
2018-09-24T14:42:07.467Z,99197.17
2018-09-24T14:44:41.941Z,99207.75
2018-09-24T14:47:16.476Z,99206.53
2018-09-24T14:49:50.998Z,99210.30
2018-09-24T14:52:25.486Z,99214.23
2018-09-24T14:54:59.998Z,99242.93
2018-09-24T14:57:34.475Z,99267.69
2018-09-24T15:00:09.174Z,99285.82
2018-09-24T15:02:43.731Z,99287.23
2018-09-24T15:05:18.382Z,99299.14
2018-09-24T15:07:53.023Z,99294.83
2018-09-24T15:10:27.615Z,99387.52
2018-09-24T15:13:02.163Z,99425.42
2018-09-24T15:15:36.675Z,99437.24
2018-09-24T15:18:11.266Z,99447.86
2018-09-24T15:20:45.744Z,99459.80
2018-09-24T15:23:20.267Z,99459.61
2018-09-24T15:25:54.967Z,99468.30
2018-09-24T15:28:29.645Z,99471.83
2018-09-24T15:31:04.178Z,99463.46
2018-09-24T15:33:38.728Z,99498.50
2018-09-24T15:36:13.327Z,99516.43
2018-09-24T15:38:47.914Z,99527.02
2018-09-24T15:41:22.419Z,99519.21
2018-09-24T15:43:56.969Z,99523.80
2018-09-24T15:46:31.479Z,99515.26
2018-09-24T15:49:05.960Z,99523.87
2018-09-24T15:51:40.483Z,99539.11
2018-09-24T15:54:14.938Z,99528.75
2018-09-24T15:56:49.512Z,99550.94
2018-09-24T15:59:23.952Z,99536.39
2018-09-24T16:01:58.645Z,99565.31
2018-09-24T16:04:33.146Z,99553.52
2018-09-24T16:07:07.751Z,99566.08
2018-09-24T16:09:42.422Z,99589.99
2018-09-24T16:12:17.084Z,99589.99
2018-09-24T16:14:51.579Z,99585.24
2018-09-24T16:17:26.199Z,99593.12
2018-09-24T16:20:00.738Z,99605.82
2018-09-24T16:22:35.338Z,99594.60
2018-09-24T16:25:09.962Z,99604.19
2018-09-24T16:27:44.502Z,99617.27
2018-09-24T16:30:19.104Z,99637.77
2018-09-24T16:32:53.635Z,99661.66
2018-09-24T16:35:28.130Z,99648.25
2018-09-24T16:38:02.636Z,99675.30
2018-09-24T16:40:37.103Z,99648.73
2018-09-24T16:43:11.619Z,99664.33
2018-09-24T16:45:46.244Z,99661.58
2018-09-24T16:48:20.786Z,99694.80
2018-09-24T16:50:55.238Z,99702.28
2018-09-24T16:53:29.754Z,99688.84
2018-09-24T16:56:04.335Z,99717.42
2018-09-24T16:58:38.923Z,99707.67
2018-09-24T17:01:13.451Z,99723.03
2018-09-24T17:03:48.046Z,99702.16
2018-09-24T17:06:22.622Z,99735.61
2018-09-24T17:08:57.276Z,99761.27
2018-09-24T17:11:31.947Z,99752.36
2018-09-24T17:14:06.462Z,99762.56
2018-09-24T17:16:41.026Z,99766.88
2018-09-24T17:19:15.508Z,99752.52
2018-09-24T17:21:50.196Z,99747.08
2018-09-24T17:24:24.832Z,99766.06
2018-09-24T17:26:59.426Z,99770.25
2018-09-24T17:29:33.973Z,99761.49
2018-09-24T17:32:08.412Z,99737.04
2018-09-24T17:34:42.967Z,99766.83
2018-09-24T17:37:17.396Z,99759.28
2018-09-24T17:39:51.892Z,99779.87
2018-09-24T17:42:26.529Z,99777.71
2018-09-24T17:45:01.175Z,99765.72
2018-09-24T17:47:35.848Z,99781.66
2018-09-24T17:50:10.371Z,99774.36
2018-09-24T17:52:44.837Z,99811.37
2018-09-24T17:55:19.459Z,99801.38
2018-09-24T17:57:54.051Z,99789.15
2018-09-24T18:00:28.607Z,99817.84
2018-09-24T18:03:03.154Z,99831.31
2018-09-24T18:05:37.642Z,99835.59
2018-09-24T18:08:12.203Z,99844.02
2018-09-24T18:10:46.754Z,99845.42
2018-09-24T18:13:21.274Z,99847.62
2018-09-24T18:15:55.830Z,99860.59
2018-09-24T18:18:30.455Z,99869.47
2018-09-24T18:21:05.026Z,99872.27
2018-09-24T18:23:39.606Z,99847.73
2018-09-24T18:26:14.278Z,99873.24
2018-09-24T18:28:48.910Z,99881.48
2018-09-24T18:31:23.611Z,99887.64
2018-09-24T18:33:58.274Z,99886.27
2018-09-24T18:36:32.802Z,99907.72
2018-09-24T18:39:07.426Z,99912.42
2018-09-24T18:41:41.886Z,99918.45
2018-09-24T18:44:16.617Z,99922.09
2018-09-24T18:46:51.042Z,99904.02
2018-09-24T18:49:25.551Z,99920.55
2018-09-24T18:52:00.083Z,99925.86
2018-09-24T18:54:34.574Z,99933.00
2018-09-24T18:57:09.063Z,99927.28
2018-09-24T18:59:43.605Z,99900.06
2018-09-24T19:02:18.137Z,99948.70
2018-09-24T19:04:52.738Z,99953.67
2018-09-24T19:07:27.270Z,99965.48
2018-09-24T19:10:01.845Z,99975.98
2018-09-24T19:12:36.403Z,99986.16
2018-09-24T19:15:10.875Z,99864.95
2018-09-24T19:17:45.422Z,99979.58
2018-09-24T19:20:19.874Z,99993.84
2018-09-24T19:22:54.406Z,99993.04
2018-09-24T19:25:28.958Z,99997.99
2018-09-24T19:28:03.604Z,99996.09
2018-09-24T19:30:38.338Z,100005.72
2018-09-24T19:33:13.142Z,100015.33
2018-09-24T19:35:47.778Z,100021.37
2018-09-24T19:38:22.366Z,100039.44
2018-09-24T19:40:57.033Z,100041.39
2018-09-24T19:43:31.657Z,100049.89
2018-09-24T19:46:06.174Z,100059.25
2018-09-24T19:48:40.670Z,100049.08
2018-09-24T19:51:15.149Z,100064.44
2018-09-24T19:53:49.677Z,100065.27
2018-09-24T19:56:24.146Z,100065.80
2018-09-24T19:58:58.786Z,100039.76
2018-09-24T20:01:33.274Z,100058.15
2018-09-24T20:04:07.815Z,100075.69
2018-09-24T20:06:42.359Z,100068.83
2018-09-24T20:09:16.901Z,100075.17
2018-09-24T20:11:51.575Z,100057.08
2018-09-24T20:14:26.014Z,100070.80
2018-09-24T20:17:00.534Z,100095.77
2018-09-24T20:19:35.068Z,100103.70
2018-09-24T20:22:11.750Z,100085.05
2018-09-24T20:24:46.742Z,100113.61
2018-09-24T20:27:21.431Z,100093.03
2018-09-24T20:29:56.083Z,100108.37
2018-09-24T20:32:30.615Z,100108.39
2018-09-24T20:35:05.176Z,100115.48
2018-09-24T20:37:39.678Z,100103.44
2018-09-24T20:40:14.186Z,100122.64
2018-09-24T20:42:48.638Z,100104.25
2018-09-24T20:45:23.160Z,100097.67
2018-09-24T20:47:57.735Z,100110.56
2018-09-24T20:50:32.401Z,100119.59
2018-09-24T20:53:06.944Z,100124.52
2018-09-24T20:55:41.451Z,100132.40
2018-09-24T20:58:15.997Z,100112.95
2018-09-24T21:00:50.572Z,100143.61
2018-09-24T21:03:25.238Z,100144.98
2018-09-24T21:05:59.776Z,100138.43
2018-09-24T21:08:34.375Z,100143.02
2018-09-24T21:11:09.077Z,100127.70
2018-09-24T21:13:43.717Z,100143.24
2018-09-24T21:16:18.257Z,100126.80
2018-09-24T21:18:52.779Z,100114.76
2018-09-24T21:21:27.285Z,100158.53
2018-09-24T21:24:01.810Z,100156.07
2018-09-24T21:26:36.279Z,100145.16
2018-09-24T21:29:11.054Z,100140.13
2018-09-24T21:31:45.562Z,100159.55
2018-09-24T21:34:20.210Z,100156.49
2018-09-24T21:36:54.720Z,100163.59
2018-09-24T21:39:29.344Z,100148.55
2018-09-24T21:42:03.934Z,100174.03
2018-09-24T21:44:38.485Z,100159.23
2018-09-24T21:47:13.086Z,100154.08
2018-09-24T21:49:47.759Z,100157.55
2018-09-24T21:52:22.376Z,100160.53
2018-09-24T21:54:57.007Z,100179.70
2018-09-24T21:57:31.654Z,100172.28
2018-09-24T22:00:06.227Z,100170.67
2018-09-24T22:02:40.750Z,100178.83
2018-09-24T22:05:15.255Z,100199.31
2018-09-24T22:07:49.814Z,100190.33
2018-09-24T22:10:24.415Z,100185.95
2018-09-24T22:12:58.962Z,100175.17
2018-09-24T22:15:33.415Z,100216.16
2018-09-24T22:18:08.063Z,100217.45
2018-09-24T22:20:42.804Z,100212.80
2018-09-24T22:23:17.519Z,100227.50
2018-09-24T22:25:52.131Z,100190.64
2018-09-24T22:28:26.629Z,100210.50
2018-09-24T22:31:01.298Z,100238.30
2018-09-24T22:33:35.919Z,100225.41
2018-09-24T22:36:10.426Z,100204.95
2018-09-24T22:38:44.862Z,100182.16
2018-09-24T22:41:19.350Z,100233.38
2018-09-24T22:43:53.894Z,100204.52
2018-09-24T22:46:28.441Z,100231.23
2018-09-24T22:49:02.934Z,100211.25
2018-09-24T22:51:37.523Z,100219.44
2018-09-24T22:54:12.034Z,100220.92
2018-09-24T22:56:46.494Z,100223.18
2018-09-24T22:59:21.120Z,100228.05
2018-09-24T23:01:55.702Z,100237.05
2018-09-24T23:04:30.202Z,100227.71
2018-09-24T23:07:04.702Z,100242.28
2018-09-24T23:09:39.301Z,100253.61
2018-09-24T23:12:13.956Z,100232.13
2018-09-24T23:14:48.595Z,100254.25
2018-09-24T23:17:23.097Z,100250.45
2018-09-24T23:19:57.571Z,100267.36
2018-09-24T23:22:32.068Z,100274.56
2018-09-24T23:25:06.635Z,100250.67
2018-09-24T23:27:41.098Z,100256.33
2018-09-24T23:30:15.584Z,100283.59
2018-09-24T23:32:50.118Z,100292.83
2018-09-24T23:35:24.706Z,100293.48
2018-09-24T23:37:59.257Z,100290.45
2018-09-24T23:40:33.798Z,100301.30
2018-09-24T23:43:08.294Z,100311.91
2018-09-24T23:45:42.799Z,100296.78
2018-09-24T23:48:17.405Z,100313.61
2018-09-24T23:50:52.035Z,100327.32
2018-09-24T23:53:26.558Z,100335.66
2018-09-24T23:56:01.080Z,100348.87
2018-09-24T23:58:35.575Z,100342.01
